Time;durP1;ratioP1;P1;durP2;ratioP2;P2;SDS_P1;SDS_P2;PMS_P1;PMS_P2;Temp;Humidity;BMP_temperature;BMP_pressure;BME280_temperature;BME280_humidity;BME280_pressure;Samples;Min_cycle;Max_cycle;Signal;HPM_P1;HPM_P2
2023/03/03 00:00:50;;;;;;;10.18;5.88;;;;;;;7.05;98.98;98509.97;5096390;28;20055;-92
2023/03/03 00:03:18;;;;;;;11.52;5.60;;;;;;;7.22;98.54;98536.13;5097254;28;20043;-94
2023/03/03 00:05:44;;;;;;;9.27;6.80;;;;;;;7.05;97.87;98500.28;5096563;28;20131;-94
2023/03/03 00:08:13;;;;;;;10.45;6.22;;;;;;;7.17;98.00;98523.88;5097870;28;20279;-91
2023/03/03 00:10:39;;;;;;;9.40;6.17;;;;;;;7.07;98.16;98508.19;5097039;28;20565;-92
2023/03/03 00:13:11;;;;;;;8.68;5.57;;;;;;;7.01;97.86;98498.59;5097045;28;20068;-93
2023/03/03 00:15:37;;;;;;;8.32;5.50;;;;;;;6.96;98.06;98492.50;5096727;28;20047;-93
2023/03/03 00:18:16;;;;;;;8.40;5.22;;;;;;;6.98;97.73;98496.00;5094985;28;20040;-92
2023/03/03 00:20:48;;;;;;;9.45;5.60;;;;;;;7.03;97.79;98509.16;5096777;28;20044;-92
2023/03/03 00:23:23;;;;;;;6.82;4.68;;;;;;;7.08;97.47;98507.31;5097602;28;20051;-94
2023/03/03 00:25:52;;;;;;;9.43;5.57;;;;;;;7.12;97.26;98511.63;5096935;28;20108;-91
2023/03/03 00:28:21;;;;;;;;;;;;;;;7.18;97.11;98520.34;5095940;28;20040;-91
2023/03/03 00:30:47;;;;;;;10.02;5.25;;;;;;;7.01;96.71;98493.31;5096443;28;19920;-93
2023/03/03 00:33:23;;;;;;;8.77;4.97;;;;;;;7.03;97.20;98506.53;5096069;28;20520;-93
2023/03/03 00:35:49;;;;;;;11.15;6.68;;;;;;;6.97;97.83;98510.13;5096622;28;20044;-92
2023/03/03 00:38:18;;;;;;;10.52;6.25;;;;;;;6.98;97.94;98510.09;5097488;28;20043;-93
2023/03/03 00:40:45;;;;;;;10.90;6.40;;;;;;;6.90;98.22;98500.56;5097109;28;20051;-91
2023/03/03 00:43:18;;;;;;;13.02;6.43;;;;;;;6.87;98.65;98512.03;5096103;28;20032;-93
2023/03/03 00:45:45;;;;;;;9.60;6.70;;;;;;;6.69;99.15;98491.19;5092297;28;20090;-94
2023/03/03 00:48:24;;;;;;;11.38;6.28;;;;;;;6.79;99.45;98519.22;5095708;28;20048;-94
2023/03/03 00:50:51;;;;;;;9.80;6.57;;;;;;;6.61;99.66;98491.31;5095760;28;20040;-93
2023/03/03 00:53:20;;;;;;;9.95;6.30;;;;;;;6.76;99.90;98519.25;5096403;28;20044;-93
2023/03/03 00:55:48;;;;;;;13.37;8.13;;;;;;;6.54;100.00;98481.75;5097027;28;20044;-94
2023/03/03 00:58:14;;;;;;;14.90;7.18;;;;;;;6.68;100.00;98498.25;5096352;28;20036;-91
2023/03/03 01:00:42;;;;;;;11.68;6.85;;;;;;;6.57;100.00;98481.69;5096493;28;20098;-92
2023/03/03 01:03:11;;;;;;;12.40;7.28;;;;;;;6.76;100.00;98509.56;5097222;28;20070;-90
2023/03/03 01:05:37;;;;;;;10.93;7.05;;;;;;;6.53;100.00;98477.38;5094560;28;20040;-93
2023/03/03 01:08:05;;;;;;;11.23;6.60;;;;;;;6.76;100.00;98504.28;5097596;28;20048;-94
2023/03/03 01:10:35;;;;;;;11.93;7.43;;;;;;;6.63;99.81;98476.31;5094921;28;20035;-94
2023/03/03 01:13:03;;;;;;;11.65;6.53;;;;;;;6.65;100.00;98460.44;5096830;28;20063;-93
2023/03/03 01:15:29;;;;;;;9.40;6.03;;;;;;;6.75;99.68;98470.84;5095279;28;20099;-94
2023/03/03 01:17:55;;;;;;;11.13;6.88;;;;;;;6.92;99.50;98486.41;5095354;28;20036;-92
2023/03/03 01:20:25;;;;;;;11.73;7.25;;;;;;;6.98;99.24;98488.97;5094680;28;20043;-91
2023/03/03 01:22:51;;;;;;;12.07;6.47;;;;;;;6.87;98.64;98456.53;5095261;28;20050;-93
2023/03/03 01:25:17;;;;;;;10.25;6.47;;;;;;;6.90;98.24;98452.97;5096484;28;20044;-92
2023/03/03 01:27:45;;;;;;;10.43;6.40;;;;;;;7.01;98.31;98466.00;5095782;28;20040;-93
2023/03/03 01:30:11;;;;;;;11.25;6.65;;;;;;;7.04;98.19;98472.09;5095560;28;20051;-92
2023/03/03 01:32:37;;;;;;;12.85;6.55;;;;;;;7.07;98.66;98474.72;5096408;28;20139;-92
2023/03/03 01:35:04;;;;;;;12.02;6.60;;;;;;;7.13;98.59;98477.22;5092514;28;20506;-94
2023/03/03 01:37:30;;;;;;;13.52;7.18;;;;;;;6.96;98.82;98458.13;5097462;28;20439;-93
2023/03/03 01:39:57;;;;;;;11.38;6.35;;;;;;;7.02;99.02;98465.97;5096243;28;20501;-92
2023/03/03 01:42:24;;;;;;;13.98;7.10;;;;;;;7.10;99.30;98477.28;5094493;28;20126;-94
2023/03/03 01:45:17;;;;;;;13.60;7.30;;;;;;;7.10;99.90;98482.56;5096422;28;20036;-92
2023/03/03 01:47:47;;;;;;;13.45;7.00;;;;;;;6.98;100.00;98466.91;5095608;28;20127;-93
2023/03/03 01:50:19;;;;;;;11.85;6.65;;;;;;;6.95;100.00;98470.50;5094966;28;20067;-92
2023/03/03 01:52:46;;;;;;;12.73;7.18;;;;;;;6.97;100.00;98475.75;5095694;28;20036;-94
2023/03/03 01:55:18;;;;;;;11.68;6.70;;;;;;;6.92;100.00;98454.69;5095721;28;20048;-91
2023/03/03 01:57:51;;;;;;;13.13;6.97;;;;;;;6.92;100.00;98459.97;5095104;28;20040;-94
2023/03/03 02:00:19;;;;;;;14.15;7.57;;;;;;;6.86;100.00;98452.16;5096212;28;20126;-93
2023/03/03 02:02:45;;;;;;;14.75;7.60;;;;;;;6.80;100.00;98449.59;5096074;28;20409;-93
2023/03/03 02:05:13;;;;;;;14.63;7.30;;;;;;;6.84;100.00;98456.59;5096190;28;20562;-92
2023/03/03 02:07:39;;;;;;;13.85;7.32;;;;;;;6.76;100.00;98456.69;5095154;28;20065;-94
2023/03/03 02:10:09;;;;;;;16.90;7.30;;;;;;;6.69;100.00;98452.44;5094916;28;20560;-93
2023/03/03 02:12:39;;;;;;;13.70;8.50;;;;;;;6.71;100.00;98444.50;5093604;28;20060;-94
2023/03/03 02:15:15;;;;;;;13.57;7.25;;;;;;;6.78;100.00;98454.91;5093401;28;20049;-92
2023/03/03 02:17:43;;;;;;;13.40;8.00;;;;;;;6.67;100.00;98435.72;5092249;28;20040;-95
2023/03/03 02:20:13;;;;;;;11.48;7.57;;;;;;;6.68;100.00;98444.53;5096008;28;20517;-93
2023/03/03 02:22:45;;;;;;;12.13;6.70;;;;;;;6.61;100.00;98443.75;5094997;28;20516;-93
2023/03/03 02:25:20;;;;;;;13.30;7.60;;;;;;;6.65;100.00;98453.38;5096042;28;20044;-92
2023/03/03 02:27:48;;;;;;;14.27;7.45;;;;;;;6.69;100.00;98464.78;5092419;28;20040;-94
2023/03/03 02:30:17;;;;;;;14.20;8.13;;;;;;;6.68;100.00;98466.56;5094582;28;20079;-93
2023/03/03 02:32:43;;;;;;;17.20;7.63;;;;;;;6.65;100.00;98463.94;5094851;28;20102;-93
2023/03/03 02:35:31;;;;;;;13.77;8.32;;;;;;;6.60;100.00;98463.16;5078911;28;20123;-93
2023/03/03 02:38:17;;;;;;;15.85;8.45;;;;;;;6.63;100.00;98471.03;5093908;28;20040;-94
2023/03/03 02:40:52;;;;;;;15.13;8.68;;;;;;;6.43;100.00;98446.72;5091605;28;20515;-94
2023/03/03 02:43:23;;;;;;;14.57;8.18;;;;;;;6.37;100.00;98431.81;5094703;28;20036;-90
2023/03/03 02:45:50;;;;;;;16.05;8.73;;;;;;;6.51;100.00;98458.91;5094579;28;20150;-93
2023/03/03 02:48:16;;;;;;;13.77;7.40;;;;;;;6.35;100.00;98430.97;5093912;28;20064;-93
2023/03/03 02:50:42;;;;;;;13.40;8.10;;;;;;;6.40;100.00;98446.72;5095363;28;20072;-93
2023/03/03 02:53:08;;;;;;;16.85;8.35;;;;;;;6.29;100.00;98429.31;5095508;28;20066;-93
2023/03/03 02:55:34;;;;;;;12.15;7.13;;;;;;;6.36;100.00;98445.94;5095355;28;20033;-94
2023/03/03 02:57:59;;;;;;;18.27;9.32;;;;;;;6.34;100.00;98438.03;5094887;28;20595;-92
2023/03/03 03:00:27;;;;;;;14.68;7.82;;;;;;;6.29;100.00;98437.22;5095507;28;20054;-93
2023/03/03 03:02:53;;;;;;;12.48;7.25;;;;;;;6.46;100.00;98425.50;5096005;28;20056;-92
2023/03/03 03:05:18;;;;;;;13.93;8.20;;;;;;;6.43;100.00;98442.28;5094216;28;20098;-91
2023/03/03 03:07:44;;;;;;;12.40;7.35;;;;;;;6.54;100.00;98444.75;5095759;28;20036;-92
2023/03/03 03:10:10;;;;;;;11.98;7.50;;;;;;;6.45;100.00;98445.78;5095693;28;20070;-92
2023/03/03 03:12:37;;;;;;;13.00;7.85;;;;;;;6.36;100.00;98438.00;5096235;28;20073;-94
2023/03/03 03:15:03;;;;;;;12.95;7.97;;;;;;;6.42;100.00;98452.88;5094514;28;20445;-90
2023/03/03 03:17:31;;;;;;;14.98;7.80;;;;;;;6.29;100.00;98420.50;5096060;28;20051;-93
2023/03/03 03:19:57;;;;;;;11.60;7.13;;;;;;;6.33;100.00;98431.00;5095399;28;20047;-91
2023/03/03 03:22:22;;;;;;;12.95;7.53;;;;;;;6.30;100.00;98414.31;5095543;28;20040;-92
2023/03/03 03:24:48;;;;;;;13.93;7.00;;;;;;;6.28;100.00;98418.75;5095709;28;20058;-92
2023/03/03 03:27:14;;;;;;;14.50;7.68;;;;;;;6.38;100.00;98428.28;5096221;28;20103;-92
2023/03/03 03:29:40;;;;;;;13.40;6.82;;;;;;;6.38;100.00;98429.16;5099045;28;20048;-95
2023/03/03 03:32:06;;;;;;;14.50;8.00;;;;;;;6.37;100.00;98410.69;5099330;28;20122;-94
2023/03/03 03:34:33;;;;;;;14.20;8.23;;;;;;;6.45;100.00;98429.94;5098821;28;20048;-93
2023/03/03 03:36:59;;;;;;;15.25;7.75;;;;;;;6.39;100.00;98435.31;5096904;28;20048;-91
2023/03/03 03:39:28;;;;;;;13.00;6.80;;;;;;;6.31;100.00;98431.91;5098698;28;20046;-93
2023/03/03 03:41:54;;;;;;;12.25;6.78;;;;;;;6.38;100.00;98450.28;5098742;28;20493;-93
2023/03/03 03:44:22;;;;;;;14.35;7.53;;;;;;;6.30;100.00;98449.53;5100018;28;20066;-92
2023/03/03 03:46:48;;;;;;;13.73;6.25;;;;;;;6.21;100.00;98436.47;5098957;28;20047;-94
2023/03/03 03:49:14;;;;;;;13.80;6.68;;;;;;;6.15;100.00;98420.72;5099271;28;20103;-94
2023/03/03 03:51:41;;;;;;;11.70;6.75;;;;;;;6.11;100.00;98417.22;5098732;28;20056;-93
2023/03/03 03:54:07;;;;;;;11.32;6.75;;;;;;;6.07;100.00;98404.09;5098799;28;20070;-95
2023/03/03 03:56:33;;;;;;;11.88;6.88;;;;;;;6.16;100.00;98433.91;5098489;28;20044;-92
2023/03/03 03:58:59;;;;;;;13.63;7.05;;;;;;;6.11;100.00;98419.88;5098615;28;20040;-93
2023/03/03 04:01:25;;;;;;;12.23;7.10;;;;;;;6.14;100.00;98403.13;5098487;28;20093;-92
2023/03/03 04:03:52;;;;;;;11.55;7.43;;;;;;;6.45;100.00;98444.91;5097779;28;20064;-94
2023/03/03 04:06:18;;;;;;;12.43;6.57;;;;;;;6.39;100.00;98435.31;5097798;28;20060;-94
2023/03/03 04:08:45;;;;;;;12.18;7.07;;;;;;;6.17;100.00;98400.44;5098855;28;20413;-93
2023/03/03 04:11:11;;;;;;;11.70;6.45;;;;;;;6.41;100.00;98419.44;5098894;28;20032;-92
2023/03/03 04:13:37;;;;;;;11.30;7.13;;;;;;;6.47;100.00;98430.78;5098866;28;20051;-92
2023/03/03 04:16:03;;;;;;;9.95;6.53;;;;;;;6.47;100.00;98429.91;5096894;28;20077;-93
2023/03/03 04:18:29;;;;;;;12.52;7.07;;;;;;;6.48;100.00;98436.94;5098296;28;20046;-92
2023/03/03 04:20:55;;;;;;;11.43;6.40;;;;;;;6.43;100.00;98441.41;5098101;28;20476;-91
2023/03/03 04:23:21;;;;;;;12.88;6.38;;;;;;;6.22;100.00;98414.44;5097107;28;20047;-92
2023/03/03 04:25:49;;;;;;;12.30;6.70;;;;;;;6.41;100.00;98444.06;5097982;28;20139;-92
2023/03/03 04:28:15;;;;;;;11.93;6.75;;;;;;;6.35;100.00;98436.25;5098005;28;20039;-93
2023/03/03 04:30:40;;;;;;;11.20;6.38;;;;;;;6.30;100.00;98430.16;5098026;28;20485;-93
2023/03/03 04:33:06;;;;;;;11.27;6.57;;;;;;;6.14;100.00;98408.41;5097311;28;20101;-92
2023/03/03 04:35:32;;;;;;;12.65;7.07;;;;;;;6.37;100.00;98443.25;5097400;28;20054;-93
2023/03/03 04:37:58;;;;;;;13.52;7.40;;;;;;;6.24;100.00;98414.41;5097716;28;20123;-94
2023/03/03 04:40:25;;;;;;;14.07;7.50;;;;;;;6.32;100.00;98425.75;5097466;28;20123;-94
2023/03/03 04:42:52;;;;;;;11.18;5.80;;;;;;;6.38;100.00;98445.00;5097861;28;20048;-92
2023/03/03 04:45:18;;;;;;;13.77;6.85;;;;;;;6.37;100.00;98437.97;5095849;28;20054;-92
2023/03/03 04:47:44;;;;;;;11.55;7.10;;;;;;;6.26;100.00;98426.69;5096678;28;20048;-94
2023/03/03 04:50:11;;;;;;;12.73;7.22;;;;;;;6.13;100.00;98412.81;5096128;28;20040;-92
2023/03/03 04:52:37;;;;;;;12.75;7.57;;;;;;;6.20;100.00;98428.56;5097505;28;20067;-92
2023/03/03 04:55:04;;;;;;;10.55;6.72;;;;;;;6.37;100.00;98451.16;5096569;28;20115;-92
2023/03/03 04:57:30;;;;;;;12.13;6.85;;;;;;;6.15;100.00;98418.06;5096008;28;20103;-90
2023/03/03 04:59:58;;;;;;;11.30;6.65;;;;;;;6.25;100.00;98435.53;5096932;28;20371;-92
2023/03/03 05:02:24;;;;;;;13.40;6.40;;;;;;;6.15;100.00;98413.66;5097474;28;20048;-93
2023/03/03 05:04:50;;;;;;;12.63;6.40;;;;;;;6.23;100.00;98445.25;5098989;28;20044;-94
2023/03/03 05:07:18;;;;;;;12.60;7.53;;;;;;;6.02;100.00;98412.09;5098712;28;20050;-94
2023/03/03 05:09:43;;;;;;;14.02;7.93;;;;;;;6.11;100.00;98426.94;5094360;28;20044;-93
2023/03/03 05:12:09;;;;;;;17.52;8.57;;;;;;;6.21;100.00;98435.59;5098867;28;20051;-90
2023/03/03 05:14:35;;;;;;;14.32;8.05;;;;;;;6.05;100.00;98411.19;5098231;28;20044;-91
2023/03/03 05:17:04;;;;;;;12.32;6.68;;;;;;;6.22;100.00;98427.63;5098865;28;20039;-93
2023/03/03 05:19:30;;;;;;;;;;;;;;;6.43;100.00;98452.00;5098896;28;20123;-94
2023/03/03 05:21:56;;;;;;;14.60;7.78;;;;;;;6.33;100.00;98425.72;5099590;28;19947;-93
2023/03/03 05:24:22;;;;;;;13.93;7.78;;;;;;;6.30;100.00;98428.41;5099267;28;20039;-93
2023/03/03 05:26:48;;;;;;;10.88;6.53;;;;;;;6.51;100.00;98447.47;5098735;28;20039;-93
2023/03/03 05:29:14;;;;;;;15.48;7.85;;;;;;;6.66;100.00;98452.50;5098125;28;20035;-93
2023/03/03 05:31:40;;;;;;;12.23;8.00;;;;;;;6.58;100.00;98438.53;5096655;28;20066;-93
2023/03/03 05:34:07;;;;;;;13.63;8.80;;;;;;;6.55;100.00;98435.94;5096942;28;20139;-91
2023/03/03 05:36:33;;;;;;;15.25;8.48;;;;;;;6.49;100.00;98436.03;5096513;28;20120;-94
2023/03/03 05:38:59;;;;;;;16.40;7.43;;;;;;;6.43;100.00;98444.94;5098129;28;20074;-94
2023/03/03 05:41:25;;;;;;;12.75;7.13;;;;;;;6.62;100.00;98455.22;5098571;28;20036;-93
2023/03/03 05:43:51;;;;;;;14.77;7.47;;;;;;;6.60;100.00;98463.16;5098066;28;20044;-92
2023/03/03 05:46:17;;;;;;;14.80;8.93;;;;;;;6.39;100.00;98443.22;5096718;28;20764;-94
2023/03/03 05:48:44;;;;;;;18.02;8.20;;;;;;;6.30;100.00;98431.03;5099077;28;20536;-92
2023/03/03 05:51:11;;;;;;;15.48;8.55;;;;;;;6.45;100.00;98445.78;5097381;28;20401;-93
2023/03/03 05:53:37;;;;;;;18.90;9.85;;;;;;;6.52;100.00;98463.25;5094932;28;20067;-93
2023/03/03 05:56:03;;;;;;;14.95;8.23;;;;;;;6.47;100.00;98456.31;5098148;28;20047;-93
2023/03/03 05:58:29;;;;;;;16.85;9.80;;;;;;;6.50;100.00;98472.97;5098465;28;20489;-92
2023/03/03 06:00:55;;;;;;;14.10;7.68;;;;;;;6.41;100.00;98443.22;5097893;28;20048;-95
2023/03/03 06:03:21;;;;;;;15.48;8.27;;;;;;;6.47;100.00;98470.41;5098225;28;20123;-93
2023/03/03 06:05:47;;;;;;;19.35;9.63;;;;;;;6.48;100.00;98474.78;5097372;28;20048;-93
2023/03/03 06:08:15;;;;;;;13.60;8.55;;;;;;;6.37;100.00;98459.09;5098054;28;20516;-94
2023/03/03 06:10:41;;;;;;;16.13;8.57;;;;;;;6.55;100.00;98476.44;5095096;28;20050;-91
2023/03/03 06:13:07;;;;;;;15.82;9.00;;;;;;;6.57;100.00;98482.56;5096237;28;20118;-92
2023/03/03 06:15:32;;;;;;;15.80;8.95;;;;;;;6.58;100.00;98478.16;5097045;28;20486;-94
2023/03/03 06:18:02;;;;;;;14.80;8.77;;;;;;;6.66;100.00;98489.47;5096061;28;20042;-93
2023/03/03 06:20:28;;;;;;;15.48;8.45;;;;;;;6.56;100.00;98479.94;5095035;28;20101;-93
2023/03/03 06:22:54;;;;;;;17.85;9.20;;;;;;;6.61;100.00;98486.03;5095756;28;20139;-92
2023/03/03 06:25:21;;;;;;;15.25;9.07;;;;;;;6.47;100.00;98477.47;5096178;28;20094;-93
2023/03/03 06:27:47;;;;;;;16.52;9.20;;;;;;;6.42;100.00;98479.28;5098098;28;20421;-93
2023/03/03 06:30:13;;;;;;;18.25;9.57;;;;;;;6.58;100.00;98494.88;5098033;28;20081;-94
2023/03/03 06:32:39;;;;;;;15.60;8.35;;;;;;;6.67;100.00;98504.44;5097844;28;20501;-93
2023/03/03 06:35:06;;;;;;;18.00;9.15;;;;;;;6.64;100.00;98493.91;5097563;28;20059;-92
2023/03/03 06:37:33;;;;;;;15.40;8.05;;;;;;;6.64;100.00;98485.13;5097037;28;20032;-92
2023/03/03 06:39:59;;;;;;;16.65;8.95;;;;;;;6.62;100.00;98471.94;5097768;28;20036;-94
2023/03/03 06:42:26;;;;;;;14.70;7.70;;;;;;;6.76;100.00;98475.19;5097117;28;20036;-93
2023/03/03 06:44:52;;;;;;;13.18;7.68;;;;;;;6.78;100.00;98483.97;5096361;28;20032;-92
2023/03/03 06:47:18;;;;;;;16.48;8.18;;;;;;;6.93;100.00;98498.72;5095023;28;20036;-90
2023/03/03 06:49:44;;;;;;;15.20;8.18;;;;;;;6.85;100.00;98486.53;5094650;28;20051;-95
2023/03/03 06:52:12;;;;;;;15.40;9.00;;;;;;;6.92;100.00;98506.69;5095910;28;20036;-93
2023/03/03 06:54:38;;;;;;;15.37;8.80;;;;;;;6.85;100.00;98474.19;5099345;28;20074;-92
2023/03/03 06:57:15;;;;;;;17.50;9.70;;;;;;;6.86;100.00;98483.88;5096400;28;20040;-93
2023/03/03 06:59:42;;;;;;;18.45;8.95;;;;;;;6.98;100.00;98496.00;5096219;28;20036;-94
2023/03/03 07:02:14;;;;;;;15.13;9.00;;;;;;;6.91;100.00;98491.72;5098270;28;20070;-94
2023/03/03 07:04:40;;;;;;;18.27;9.95;;;;;;;6.82;100.00;98502.44;5099872;28;20105;-93
2023/03/03 07:07:14;;;;;;;19.75;9.20;;;;;;;6.82;100.00;98495.38;5099864;28;20044;-94
2023/03/03 07:09:40;;;;;;;16.90;9.20;;;;;;;7.07;100.00;98506.44;5100311;28;20451;-91
2023/03/03 07:12:10;;;;;;;14.85;8.95;;;;;;;6.97;100.00;98494.25;5099674;28;20044;-92
2023/03/03 07:14:42;;;;;;;13.98;7.90;;;;;;;7.20;100.00;98497.38;5100626;28;20044;-94
2023/03/03 07:17:14;;;;;;;14.63;7.50;;;;;;;7.06;100.00;98491.44;5098990;28;20090;-94
2023/03/03 07:19:40;;;;;;;15.18;7.55;;;;;;;7.18;100.00;98504.47;5102186;28;20036;-92
2023/03/03 07:22:14;;;;;;;12.63;7.47;;;;;;;7.19;100.00;98502.69;5100821;28;20068;-93
2023/03/03 07:24:42;;;;;;;16.75;8.60;;;;;;;7.23;100.00;98487.66;5098546;28;20036;-92
2023/03/03 07:27:12;;;;;;;13.88;9.00;;;;;;;7.32;100.00;98520.06;5093490;28;20043;-93
2023/03/03 07:29:40;;;;;;;17.58;8.88;;;;;;;7.13;100.00;98493.09;5096693;28;20067;-93
2023/03/03 07:32:26;;;;;;;14.15;8.43;;;;;;;7.29;100.00;98495.47;5101077;28;20134;-93
2023/03/03 07:34:55;;;;;;;14.20;7.97;;;;;;;7.30;100.00;98505.16;5099635;28;20044;-92
2023/03/03 07:37:28;;;;;;;15.55;8.30;;;;;;;7.30;100.00;98513.06;5099288;28;20043;-93
2023/03/03 07:39:54;;;;;;;12.93;7.93;;;;;;;7.41;100.00;98514.63;5100071;28;20033;-92
2023/03/03 07:42:23;;;;;;;13.75;7.07;;;;;;;7.35;99.29;98482.13;5100442;28;20047;-95
2023/03/03 07:44:51;;;;;;;15.55;8.30;;;;;;;7.59;99.17;98507.25;5100000;28;20047;-95
2023/03/03 07:47:24;;;;;;;12.00;7.40;;;;;;;7.65;97.62;98482.44;5099862;28;20040;-94
2023/03/03 07:49:52;;;;;;;10.70;5.95;;;;;;;7.70;96.72;98485.84;5101999;28;20109;-94
2023/03/03 07:52:25;;;;;;;10.95;6.32;;;;;;;7.81;95.81;98479.44;5100524;28;20036;-95
2023/03/03 07:54:52;;;;;;;13.25;7.60;;;;;;;7.86;96.00;98511.13;5101227;28;20044;-94
2023/03/03 07:57:22;;;;;;;13.57;7.90;;;;;;;7.97;95.91;98508.25;5102186;28;20044;-92
2023/03/03 07:59:49;;;;;;;14.20;7.85;;;;;;;7.81;95.83;98490.03;5101942;28;20143;-93
2023/03/03 08:02:36;;;;;;;15.98;7.72;;;;;;;7.90;96.22;98509.28;5097385;28;20040;-93
2023/03/03 08:05:25;;;;;;;11.95;7.55;;;;;;;7.97;95.73;98501.16;5099991;28;20051;-94
2023/03/03 08:07:51;;;;;;;15.13;7.45;;;;;;;8.00;96.02;98527.59;5099095;28;20047;-94
2023/03/03 08:10:33;;;;;;;11.18;6.95;;;;;;;7.99;96.57;98515.25;5098529;28;20112;-93
2023/03/03 08:13:14;;;;;;;13.70;7.75;;;;;;;7.96;96.00;98514.47;5099679;28;20048;-94
2023/03/03 08:15:40;;;;;;;13.27;7.85;;;;;;;7.88;96.24;98501.38;5096432;28;20032;-96
2023/03/03 08:18:20;;;;;;;12.45;6.78;;;;;;;7.97;94.90;98514.41;5098043;28;20123;-95
2023/03/03 08:20:48;;;;;;;13.80;7.05;;;;;;;8.02;95.29;98516.97;5098311;28;20093;-93
2023/03/03 08:23:15;;;;;;;16.73;8.40;;;;;;;8.05;95.67;98534.59;5098904;28;20143;-92
2023/03/03 08:25:42;;;;;;;12.00;7.20;;;;;;;7.91;95.94;98525.13;5098558;28;20410;-92
2023/03/03 08:28:08;;;;;;;15.05;8.70;;;;;;;7.98;96.48;98547.94;5098199;28;20067;-94
2023/03/03 08:30:34;;;;;;;12.95;7.93;;;;;;;7.92;96.20;98516.28;5097628;28;20378;-94
2023/03/03 08:33:00;;;;;;;28.10;16.40;;;;;;;7.98;95.89;98531.16;5098080;28;20135;-92
2023/03/03 08:35:27;;;;;;;23.27;13.05;;;;;;;8.12;95.76;98537.06;5098075;28;20130;-94
2023/03/03 08:37:53;;;;;;;21.38;9.88;;;;;;;8.26;94.81;98535.88;5097410;28;20036;-93
2023/03/03 08:40:19;;;;;;;21.85;12.35;;;;;;;8.40;94.39;98540.03;5098117;28;20040;-94
2023/03/03 08:45:47;;;;;;;17.95;9.25;;;;;;;8.98;89.28;98531.63;5110351;27;20363;-94
2023/03/03 08:48:14;;;;;;;15.80;8.90;;;;;;;9.23;88.62;98530.09;5093124;28;20061;-95
2023/03/03 08:50:41;;;;;;;11.35;7.32;;;;;;;9.03;89.27;98546.50;5092703;28;20058;-94
2023/03/03 08:53:07;;;;;;;14.52;7.50;;;;;;;9.27;88.53;98553.91;5075240;28;20116;-94
2023/03/03 08:55:35;;;;;;;12.45;7.53;;;;;;;9.24;86.79;98528.34;5091418;28;20135;-94
2023/03/03 08:58:00;;;;;;;18.55;10.40;;;;;;;9.34;86.49;98521.84;5094317;28;20070;-95
2023/03/03 09:00:26;;;;;;;19.77;10.32;;;;;;;9.38;86.64;98536.78;5094597;28;20048;-94
2023/03/03 09:02:54;;;;;;;12.90;8.25;;;;;;;9.45;85.13;98524.22;5092344;28;20036;-93
2023/03/03 09:05:22;;;;;;;10.63;7.30;;;;;;;9.63;84.78;98541.47;5092956;28;20040;-94
2023/03/03 09:07:50;;;;;;;13.45;7.80;;;;;;;9.63;85.29;98529.06;5112287;28;20035;-94
2023/03/03 09:10:18;;;;;;;11.25;6.50;;;;;;;9.75;83.94;98551.75;5113387;28;20068;-95
2023/03/03 09:12:47;;;;;;;13.98;7.28;;;;;;;9.90;84.05;98539.81;5104345;28;20048;-95
2023/03/03 09:15:22;;;;;;;8.23;5.47;;;;;;;9.57;86.00;98546.94;5100210;28;20048;-95
2023/03/03 09:17:48;;;;;;;8.90;5.38;;;;;;;9.71;85.21;98539.47;5095302;28;20044;-95
2023/03/03 09:20:27;;;;;;;9.32;6.25;;;;;;;9.58;84.28;98524.78;5092661;28;20044;-95
2023/03/03 09:22:53;;;;;;;6.50;4.07;;;;;;;9.74;84.79;98546.50;5093177;28;20045;-94
2023/03/03 09:25:26;;;;;;;6.55;3.95;;;;;;;9.71;83.98;98534.16;5093395;28;20067;-95
2023/03/03 09:27:53;;;;;;;6.85;4.18;;;;;;;10.08;81.87;98541.09;5094058;28;20044;-95
2023/03/03 09:30:33;;;;;;;6.05;3.97;;;;;;;10.08;80.75;98552.59;5094655;28;20037;-95
2023/03/03 09:33:01;;;;;;;6.95;4.20;;;;;;;9.92;82.57;98548.63;5103498;28;20127;-95
2023/03/03 09:35:36;;;;;;;5.63;3.83;;;;;;;10.05;81.84;98534.06;5108365;28;20096;-94
2023/03/03 09:38:18;;;;;;;7.63;3.90;;;;;;;10.25;80.90;98545.91;5104074;28;20456;-94
2023/03/03 09:40:54;;;;;;;9.02;4.90;;;;;;;10.36;80.63;98554.47;5110568;28;20139;-94
2023/03/03 09:43:36;;;;;;;8.43;5.13;;;;;;;10.48;81.67;98559.44;5115290;28;20047;-94
2023/03/03 09:46:07;;;;;;;8.98;5.05;;;;;;;10.64;79.99;98535.03;5108095;28;20048;-95
2023/03/03 09:48:51;;;;;;;7.78;4.60;;;;;;;10.78;78.86;98553.19;5094474;28;20052;-95
2023/03/03 09:51:50;;;;;;;8.18;4.25;;;;;;;10.92;76.19;98534.16;5094730;28;20047;-95
2023/03/03 09:54:27;;;;;;;8.55;4.80;;;;;;;11.18;77.88;98526.19;5095213;28;20041;-95
2023/03/03 09:57:04;;;;;;;11.30;4.80;;;;;;;11.09;75.89;98539.81;5081479;28;20044;-95
2023/03/03 09:59:59;;;;;;;8.27;4.57;;;;;;;11.05;76.90;98516.88;5079740;28;20580;-96
2023/03/03 10:02:37;;;;;;;9.00;4.72;;;;;;;11.54;75.64;98541.84;5080761;28;20409;-95
2023/03/03 10:05:20;;;;;;;8.93;4.90;;;;;;;11.63;74.57;98543.31;5080663;28;20420;-94
2023/03/03 10:08:01;;;;;;;9.98;5.00;;;;;;;11.35;75.00;98525.63;5080522;28;20049;-95
2023/03/03 10:10:47;;;;;;;10.18;5.10;;;;;;;11.46;74.18;98554.53;5080082;28;20064;-95
2023/03/03 10:13:40;;;;;;;7.65;5.00;;;;;;;11.30;75.06;98555.06;5080950;28;20040;-95
2023/03/03 10:16:27;;;;;;;9.48;5.40;;;;;;;10.95;74.90;98540.25;5080332;28;20048;-95
2023/03/03 10:19:00;;;;;;;7.82;4.53;;;;;;;10.96;76.45;98543.78;5081764;28;20045;-93
2023/03/03 10:21:30;;;;;;;9.88;5.05;;;;;;;10.86;77.05;98543.19;5081854;28;20051;-96
2023/03/03 10:24:04;;;;;;;9.02;5.22;;;;;;;10.64;78.27;98550.97;5080919;28;20433;-95
2023/03/03 10:27:01;;;;;;;10.35;6.05;;;;;;;10.67;78.50;98553.56;5080088;28;20049;-93
2023/03/03 10:29:35;;;;;;;8.48;5.35;;;;;;;10.48;78.21;98543.47;5077167;28;20052;-93
2023/03/03 10:32:26;;;;;;;7.75;4.90;;;;;;;10.37;79.51;98540.28;5079375;28;20064;-96
2023/03/03 10:35:14;;;;;;;8.30;5.35;;;;;;;10.40;79.08;98549.94;5085245;28;20047;-95
2023/03/03 10:37:52;;;;;;;12.25;5.78;;;;;;;10.43;79.86;98577.31;5079470;28;20072;-95
2023/03/03 10:40:31;;;;;;;12.73;5.55;;;;;;;10.23;81.00;98553.06;5082176;28;20076;-95
2023/03/03 10:43:20;;;;;;;8.27;5.50;;;;;;;10.28;80.59;98562.66;5082824;28;20067;-95
2023/03/03 10:46:08;;;;;;;9.68;5.95;;;;;;;10.19;79.91;98556.72;5083841;28;20083;-96
2023/03/03 10:48:54;;;;;;;13.55;6.20;;;;;;;9.96;80.50;98558.25;5081474;28;20072;-96
2023/03/03 10:51:30;;;;;;;8.73;5.22;;;;;;;9.86;80.71;98567.38;5081268;28;20048;-95
2023/03/03 10:54:08;;;;;;;8.82;5.68;;;;;;;9.65;82.07;98583.00;5080742;28;20102;-95
2023/03/03 11:21:45;;;;;;;9.45;5.30;;;;;;;10.62;76.42;98520.91;4849606;27;1428000;-94
2023/03/03 11:24:23;;;;;;;10.85;5.32;;;;;;;11.03;75.11;98519.56;5116603;28;20100;-93
2023/03/03 11:27:13;;;;;;;7.40;5.13;;;;;;;11.25;74.18;98517.06;5108503;28;20040;-94
2023/03/03 11:29:55;;;;;;;10.82;6.55;;;;;;;11.38;72.70;98519.31;5096570;28;20058;-94
2023/03/03 11:32:32;;;;;;;7.00;4.20;;;;;;;10.93;73.71;98496.88;5101852;28;20040;-96
2023/03/03 11:35:21;;;;;;;9.32;4.85;;;;;;;11.33;70.74;98489.34;5107775;28;20111;-93
2023/03/03 11:37:58;;;;;;;7.93;4.40;;;;;;;11.43;70.56;98517.38;5119389;28;20039;-95
2023/03/03 11:40:29;;;;;;;7.68;5.07;;;;;;;11.54;71.10;98477.03;5077885;28;20051;-95
2023/03/03 11:43:04;;;;;;;7.30;4.03;;;;;;;11.77;69.79;98478.88;5078455;28;20401;-95
2023/03/03 11:45:39;;;;;;;7.60;4.20;;;;;;;11.56;70.27;98472.53;5087555;28;20044;-93
2023/03/03 11:48:13;;;;;;;7.20;4.75;;;;;;;11.58;70.85;98476.00;5104623;28;20039;-95
2023/03/03 11:50:47;;;;;;;8.10;4.80;;;;;;;11.69;68.54;98493.34;5108396;28;20066;-95
2023/03/03 11:53:28;;;;;;;8.65;5.22;;;;;;;11.78;70.43;98481.50;5123241;28;20043;-96
2023/03/03 11:55:59;;;;;;;13.20;6.00;;;;;;;11.09;69.91;98475.94;5102513;28;20505;-96
2023/03/03 11:58:30;;;;;;;10.18;5.03;;;;;;;11.65;68.97;98475.75;5096605;28;20044;-95
2023/03/03 12:01:03;;;;;;;7.60;5.10;;;;;;;12.04;68.56;98469.91;5095342;28;20036;-95
2023/03/03 12:03:34;;;;;;;8.70;4.70;;;;;;;12.13;66.15;98490.00;5096473;28;20139;-94
2023/03/03 12:06:21;;;;;;;9.57;5.63;;;;;;;12.01;68.42;98496.66;5096437;28;20042;-93
2023/03/03 12:09:30;;;;;;;8.25;5.78;;;;;;;12.03;67.59;98467.28;5095069;28;20055;-95
2023/03/03 12:12:04;;;;;;;7.15;4.57;;;;;;;11.88;66.64;98482.03;5093235;28;20113;-95